sensor_id;sensor_type;location;lat;lon;timestamp;P1;durP1;ratioP1;P2;durP2;ratioP2
56136;SDS011;42008;52.934;5.884;2024-03-02T00:01:47;6.33;;;2.50;;
56136;SDS011;42008;52.934;5.884;2024-03-02T00:04:13;4.67;;;2.50;;
56136;SDS011;42008;52.934;5.884;2024-03-02T00:06:39;4.33;;;2.40;;
56136;SDS011;42008;52.934;5.884;2024-03-02T00:09:05;5.33;;;2.93;;
56136;SDS011;42008;52.934;5.884;2024-03-02T00:11:34;3.97;;;2.30;;
56136;SDS011;42008;52.934;5.884;2024-03-02T00:14:01;5.33;;;2.30;;
56136;SDS011;42008;52.934;5.884;2024-03-02T00:16:30;5.53;;;2.33;;
56136;SDS011;42008;52.934;5.884;2024-03-02T00:19:00;5.60;;;2.97;;
56136;SDS011;42008;52.934;5.884;2024-03-02T00:21:27;3.77;;;2.30;;
56136;SDS011;42008;52.934;5.884;2024-03-02T00:23:53;7.07;;;2.53;;
56136;SDS011;42008;52.934;5.884;2024-03-02T00:26:19;5.23;;;2.40;;
56136;SDS011;42008;52.934;5.884;2024-03-02T00:28:45;7.50;;;2.73;;
56136;SDS011;42008;52.934;5.884;2024-03-02T00:31:12;4.47;;;2.30;;
56136;SDS011;42008;52.934;5.884;2024-03-02T00:33:41;4.43;;;2.30;;
56136;SDS011;42008;52.934;5.884;2024-03-02T00:36:08;4.50;;;2.20;;
56136;SDS011;42008;52.934;5.884;2024-03-02T00:38:34;11.00;;;2.80;;
56136;SDS011;42008;52.934;5.884;2024-03-02T00:41:04;5.30;;;2.30;;
56136;SDS011;42008;52.934;5.884;2024-03-02T00:43:38;6.03;;;2.37;;
56136;SDS011;42008;52.934;5.884;2024-03-02T00:46:05;5.32;;;2.40;;
56136;SDS011;42008;52.934;5.884;2024-03-02T00:48:32;6.90;;;2.60;;
56136;SDS011;42008;52.934;5.884;2024-03-02T00:51:01;5.00;;;2.57;;
56136;SDS011;42008;52.934;5.884;2024-03-02T00:53:28;5.17;;;2.40;;
56136;SDS011;42008;52.934;5.884;2024-03-02T00:55:55;5.70;;;2.23;;
56136;SDS011;42008;52.934;5.884;2024-03-02T00:58:21;4.57;;;2.33;;
56136;SDS011;42008;52.934;5.884;2024-03-02T01:00:47;4.70;;;2.30;;
56136;SDS011;42008;52.934;5.884;2024-03-02T01:03:13;5.13;;;2.17;;
56136;SDS011;42008;52.934;5.884;2024-03-02T01:05:42;6.10;;;2.47;;
56136;SDS011;42008;52.934;5.884;2024-03-02T01:08:09;3.70;;;2.30;;
56136;SDS011;42008;52.934;5.884;2024-03-02T01:10:35;7.13;;;2.40;;
56136;SDS011;42008;52.934;5.884;2024-03-02T01:13:01;4.33;;;2.40;;
56136;SDS011;42008;52.934;5.884;2024-03-02T01:15:27;4.37;;;2.50;;
56136;SDS011;42008;52.934;5.884;2024-03-02T01:17:53;6.87;;;2.90;;
56136;SDS011;42008;52.934;5.884;2024-03-02T01:20:19;3.60;;;2.37;;
56136;SDS011;42008;52.934;5.884;2024-03-02T01:22:45;4.90;;;2.47;;
56136;SDS011;42008;52.934;5.884;2024-03-02T01:25:12;3.97;;;2.03;;
56136;SDS011;42008;52.934;5.884;2024-03-02T01:27:38;4.30;;;2.30;;
56136;SDS011;42008;52.934;5.884;2024-03-02T01:30:04;4.60;;;2.57;;
56136;SDS011;42008;52.934;5.884;2024-03-02T01:32:31;6.47;;;2.70;;
56136;SDS011;42008;52.934;5.884;2024-03-02T01:34:57;4.90;;;2.30;;
56136;SDS011;42008;52.934;5.884;2024-03-02T01:37:23;5.23;;;2.13;;
56136;SDS011;42008;52.934;5.884;2024-03-02T01:39:49;6.33;;;2.67;;
56136;SDS011;42008;52.934;5.884;2024-03-02T01:42:15;4.57;;;2.50;;
56136;SDS011;42008;52.934;5.884;2024-03-02T01:44:41;5.20;;;2.47;;
56136;SDS011;42008;52.934;5.884;2024-03-02T01:47:07;4.30;;;2.30;;
56136;SDS011;42008;52.934;5.884;2024-03-02T01:49:33;4.10;;;2.20;;
56136;SDS011;42008;52.934;5.884;2024-03-02T01:51:59;4.83;;;2.20;;
56136;SDS011;42008;52.934;5.884;2024-03-02T01:54:25;4.67;;;2.27;;
56136;SDS011;42008;52.934;5.884;2024-03-02T01:56:51;3.60;;;1.97;;
56136;SDS011;42008;52.934;5.884;2024-03-02T01:59:17;4.63;;;2.07;;
56136;SDS011;42008;52.934;5.884;2024-03-02T02:01:43;3.83;;;1.90;;
56136;SDS011;42008;52.934;5.884;2024-03-02T02:04:09;3.40;;;1.60;;
56136;SDS011;42008;52.934;5.884;2024-03-02T02:06:35;4.63;;;1.73;;
56136;SDS011;42008;52.934;5.884;2024-03-02T02:09:01;4.77;;;1.80;;
56136;SDS011;42008;52.934;5.884;2024-03-02T02:11:27;4.30;;;1.70;;
56136;SDS011;42008;52.934;5.884;2024-03-02T02:13:54;5.30;;;2.00;;
56136;SDS011;42008;52.934;5.884;2024-03-02T02:16:20;5.17;;;1.90;;
56136;SDS011;42008;52.934;5.884;2024-03-02T02:18:46;5.73;;;1.90;;
56136;SDS011;42008;52.934;5.884;2024-03-02T02:21:12;3.53;;;1.73;;
56136;SDS011;42008;52.934;5.884;2024-03-02T02:23:39;6.90;;;1.90;;
56136;SDS011;42008;52.934;5.884;2024-03-02T02:26:05;3.87;;;1.63;;
56136;SDS011;42008;52.934;5.884;2024-03-02T02:28:31;4.23;;;1.93;;
56136;SDS011;42008;52.934;5.884;2024-03-02T02:30:57;3.73;;;1.70;;
56136;SDS011;42008;52.934;5.884;2024-03-02T02:33:25;4.63;;;1.93;;
56136;SDS011;42008;52.934;5.884;2024-03-02T02:35:51;3.83;;;1.50;;
56136;SDS011;42008;52.934;5.884;2024-03-02T02:38:17;4.00;;;1.70;;
56136;SDS011;42008;52.934;5.884;2024-03-02T02:40:45;3.63;;;1.63;;
56136;SDS011;42008;52.934;5.884;2024-03-02T02:43:11;3.60;;;1.50;;
56136;SDS011;42008;52.934;5.884;2024-03-02T02:45:37;6.73;;;1.90;;
56136;SDS011;42008;52.934;5.884;2024-03-02T02:48:03;5.37;;;1.93;;
56136;SDS011;42008;52.934;5.884;2024-03-02T02:50:30;4.13;;;1.77;;
56136;SDS011;42008;52.934;5.884;2024-03-02T02:52:56;5.67;;;1.60;;
56136;SDS011;42008;52.934;5.884;2024-03-02T02:55:22;4.27;;;1.80;;
56136;SDS011;42008;52.934;5.884;2024-03-02T02:57:48;5.20;;;1.67;;
56136;SDS011;42008;52.934;5.884;2024-03-02T03:00:14;3.90;;;1.90;;
56136;SDS011;42008;52.934;5.884;2024-03-02T03:02:41;5.90;;;1.80;;
56136;SDS011;42008;52.934;5.884;2024-03-02T03:05:11;3.80;;;1.53;;
56136;SDS011;42008;52.934;5.884;2024-03-02T03:07:41;4.70;;;1.60;;
56136;SDS011;42008;52.934;5.884;2024-03-02T03:10:10;4.83;;;1.60;;
56136;SDS011;42008;52.934;5.884;2024-03-02T03:12:36;4.53;;;1.67;;
56136;SDS011;42008;52.934;5.884;2024-03-02T03:15:02;7.37;;;1.70;;
56136;SDS011;42008;52.934;5.884;2024-03-02T03:17:29;3.87;;;1.53;;
56136;SDS011;42008;52.934;5.884;2024-03-02T03:19:55;3.97;;;1.40;;
56136;SDS011;42008;52.934;5.884;2024-03-02T03:22:21;4.60;;;1.83;;
56136;SDS011;42008;52.934;5.884;2024-03-02T03:24:47;3.50;;;1.20;;
56136;SDS011;42008;52.934;5.884;2024-03-02T03:27:13;5.70;;;1.50;;
56136;SDS011;42008;52.934;5.884;2024-03-02T03:29:39;3.77;;;1.37;;
56136;SDS011;42008;52.934;5.884;2024-03-02T03:32:05;2.53;;;1.10;;
56136;SDS011;42008;52.934;5.884;2024-03-02T03:34:32;2.23;;;1.10;;
56136;SDS011;42008;52.934;5.884;2024-03-02T03:36:58;6.70;;;1.20;;
56136;SDS011;42008;52.934;5.884;2024-03-02T03:39:24;3.77;;;1.10;;
56136;SDS011;42008;52.934;5.884;2024-03-02T03:41:50;2.30;;;0.97;;
56136;SDS011;42008;52.934;5.884;2024-03-02T03:44:16;2.80;;;1.20;;
56136;SDS011;42008;52.934;5.884;2024-03-02T03:46:42;5.00;;;1.73;;
56136;SDS011;42008;52.934;5.884;2024-03-02T03:49:08;3.10;;;1.03;;
56136;SDS011;42008;52.934;5.884;2024-03-02T03:51:34;6.23;;;1.57;;
56136;SDS011;42008;52.934;5.884;2024-03-02T03:54:00;3.40;;;1.00;;
56136;SDS011;42008;52.934;5.884;2024-03-02T03:56:26;4.23;;;1.00;;
56136;SDS011;42008;52.934;5.884;2024-03-02T03:58:52;3.07;;;1.10;;
56136;SDS011;42008;52.934;5.884;2024-03-02T04:01:18;2.97;;;1.10;;
56136;SDS011;42008;52.934;5.884;2024-03-02T04:03:44;6.33;;;1.20;;
56136;SDS011;42008;52.934;5.884;2024-03-02T04:06:10;3.37;;;1.20;;
56136;SDS011;42008;52.934;5.884;2024-03-02T04:08:36;3.40;;;0.90;;
56136;SDS011;42008;52.934;5.884;2024-03-02T04:11:03;4.07;;;0.80;;
56136;SDS011;42008;52.934;5.884;2024-03-02T04:13:29;3.37;;;0.90;;
56136;SDS011;42008;52.934;5.884;2024-03-02T04:15:55;3.00;;;0.90;;
56136;SDS011;42008;52.934;5.884;2024-03-02T04:18:21;3.30;;;0.70;;
56136;SDS011;42008;52.934;5.884;2024-03-02T04:20:47;1.80;;;0.80;;
56136;SDS011;42008;52.934;5.884;2024-03-02T04:23:13;2.67;;;0.80;;
56136;SDS011;42008;52.934;5.884;2024-03-02T04:25:39;1.93;;;0.70;;
56136;SDS011;42008;52.934;5.884;2024-03-02T04:28:05;5.97;;;0.97;;
56136;SDS011;42008;52.934;5.884;2024-03-02T04:30:31;2.63;;;1.40;;
56136;SDS011;42008;52.934;5.884;2024-03-02T04:32:58;2.10;;;0.80;;
56136;SDS011;42008;52.934;5.884;2024-03-02T04:35:24;1.80;;;0.70;;
56136;SDS011;42008;52.934;5.884;2024-03-02T04:37:50;2.13;;;0.90;;
56136;SDS011;42008;52.934;5.884;2024-03-02T04:40:16;2.20;;;0.80;;
56136;SDS011;42008;52.934;5.884;2024-03-02T04:42:42;1.43;;;0.60;;
56136;SDS011;42008;52.934;5.884;2024-03-02T04:45:08;1.20;;;0.60;;
56136;SDS011;42008;52.934;5.884;2024-03-02T04:47:34;3.13;;;0.70;;
56136;SDS011;42008;52.934;5.884;2024-03-02T04:50:00;2.00;;;0.70;;
56136;SDS011;42008;52.934;5.884;2024-03-02T04:52:26;2.63;;;0.77;;
56136;SDS011;42008;52.934;5.884;2024-03-02T04:54:52;2.00;;;0.70;;
56136;SDS011;42008;52.934;5.884;2024-03-02T04:57:37;1.63;;;0.60;;
56136;SDS011;42008;52.934;5.884;2024-03-02T05:00:03;2.77;;;0.80;;
56136;SDS011;42008;52.934;5.884;2024-03-02T05:02:32;2.10;;;0.60;;
56136;SDS011;42008;52.934;5.884;2024-03-02T05:04:58;1.80;;;0.70;;
56136;SDS011;42008;52.934;5.884;2024-03-02T05:07:24;3.30;;;0.90;;
56136;SDS011;42008;52.934;5.884;2024-03-02T05:09:50;3.10;;;0.80;;
56136;SDS011;42008;52.934;5.884;2024-03-02T05:12:16;2.17;;;0.70;;
56136;SDS011;42008;52.934;5.884;2024-03-02T05:14:48;2.08;;;0.80;;
56136;SDS011;42008;52.934;5.884;2024-03-02T05:17:14;2.00;;;0.70;;
56136;SDS011;42008;52.934;5.884;2024-03-02T05:19:40;2.10;;;0.90;;
56136;SDS011;42008;52.934;5.884;2024-03-02T05:22:05;2.17;;;0.70;;
56136;SDS011;42008;52.934;5.884;2024-03-02T05:24:32;2.00;;;0.77;;
56136;SDS011;42008;52.934;5.884;2024-03-02T05:26:58;3.23;;;1.00;;
56136;SDS011;42008;52.934;5.884;2024-03-02T05:29:24;2.20;;;0.80;;
56136;SDS011;42008;52.934;5.884;2024-03-02T05:31:50;3.27;;;1.00;;
56136;SDS011;42008;52.934;5.884;2024-03-02T05:34:16;2.80;;;0.90;;
56136;SDS011;42008;52.934;5.884;2024-03-02T05:36:43;2.80;;;1.20;;
56136;SDS011;42008;52.934;5.884;2024-03-02T05:39:09;3.37;;;1.17;;
56136;SDS011;42008;52.934;5.884;2024-03-02T05:41:35;2.83;;;0.90;;
56136;SDS011;42008;52.934;5.884;2024-03-02T05:44:03;2.80;;;0.80;;
56136;SDS011;42008;52.934;5.884;2024-03-02T05:46:29;2.53;;;0.90;;
56136;SDS011;42008;52.934;5.884;2024-03-02T05:48:55;3.37;;;1.17;;
56136;SDS011;42008;52.934;5.884;2024-03-02T05:51:21;2.17;;;1.00;;
56136;SDS011;42008;52.934;5.884;2024-03-02T05:53:47;1.70;;;1.00;;
56136;SDS011;42008;52.934;5.884;2024-03-02T05:56:13;2.00;;;1.10;;
56136;SDS011;42008;52.934;5.884;2024-03-02T05:58:40;3.37;;;1.07;;
56136;SDS011;42008;52.934;5.884;2024-03-02T06:01:12;3.87;;;1.17;;
56136;SDS011;42008;52.934;5.884;2024-03-02T06:03:38;2.73;;;1.30;;
56136;SDS011;42008;52.934;5.884;2024-03-02T06:06:04;2.70;;;1.20;;
56136;SDS011;42008;52.934;5.884;2024-03-02T06:08:30;2.70;;;1.13;;
56136;SDS011;42008;52.934;5.884;2024-03-02T06:10:57;3.93;;;1.10;;
56136;SDS011;42008;52.934;5.884;2024-03-02T06:13:23;2.00;;;1.00;;
56136;SDS011;42008;52.934;5.884;2024-03-02T06:15:50;4.47;;;1.17;;
56136;SDS011;42008;52.934;5.884;2024-03-02T06:18:16;2.50;;;1.10;;
56136;SDS011;42008;52.934;5.884;2024-03-02T06:20:42;2.93;;;1.03;;
56136;SDS011;42008;52.934;5.884;2024-03-02T06:23:08;3.03;;;1.40;;
56136;SDS011;42008;52.934;5.884;2024-03-02T06:25:34;2.67;;;1.23;;
56136;SDS011;42008;52.934;5.884;2024-03-02T06:28:00;3.03;;;1.10;;
56136;SDS011;42008;52.934;5.884;2024-03-02T06:30:26;2.23;;;1.10;;
56136;SDS011;42008;52.934;5.884;2024-03-02T06:32:52;2.40;;;1.20;;
56136;SDS011;42008;52.934;5.884;2024-03-02T06:35:18;4.20;;;1.33;;
56136;SDS011;42008;52.934;5.884;2024-03-02T06:37:44;3.87;;;1.37;;
56136;SDS011;42008;52.934;5.884;2024-03-02T06:40:10;3.67;;;1.27;;
56136;SDS011;42008;52.934;5.884;2024-03-02T06:42:36;4.03;;;1.10;;
56136;SDS011;42008;52.934;5.884;2024-03-02T06:45:02;2.00;;;1.00;;
56136;SDS011;42008;52.934;5.884;2024-03-02T06:47:29;2.70;;;1.03;;
56136;SDS011;42008;52.934;5.884;2024-03-02T06:49:55;2.70;;;1.07;;
56136;SDS011;42008;52.934;5.884;2024-03-02T06:52:22;2.80;;;1.10;;
56136;SDS011;42008;52.934;5.884;2024-03-02T06:54:48;3.53;;;1.43;;
56136;SDS011;42008;52.934;5.884;2024-03-02T06:57:14;2.80;;;1.10;;
56136;SDS011;42008;52.934;5.884;2024-03-02T06:59:42;2.83;;;1.10;;
56136;SDS011;42008;52.934;5.884;2024-03-02T07:02:08;3.00;;;1.30;;
56136;SDS011;42008;52.934;5.884;2024-03-02T07:04:34;3.33;;;1.30;;
56136;SDS011;42008;52.934;5.884;2024-03-02T07:07:00;3.13;;;1.00;;
56136;SDS011;42008;52.934;5.884;2024-03-02T07:09:26;2.73;;;1.10;;
56136;SDS011;42008;52.934;5.884;2024-03-02T07:11:52;4.83;;;1.20;;
56136;SDS011;42008;52.934;5.884;2024-03-02T07:14:18;3.43;;;1.17;;
56136;SDS011;42008;52.934;5.884;2024-03-02T07:16:44;3.37;;;1.10;;
56136;SDS011;42008;52.934;5.884;2024-03-02T07:19:10;3.07;;;1.00;;
56136;SDS011;42008;52.934;5.884;2024-03-02T07:21:36;3.87;;;1.60;;
56136;SDS011;42008;52.934;5.884;2024-03-02T07:24:02;3.13;;;1.10;;
56136;SDS011;42008;52.934;5.884;2024-03-02T07:26:28;2.93;;;0.90;;
56136;SDS011;42008;52.934;5.884;2024-03-02T07:28:56;2.57;;;1.00;;
56136;SDS011;42008;52.934;5.884;2024-03-02T07:31:22;2.43;;;1.20;;
56136;SDS011;42008;52.934;5.884;2024-03-02T07:33:48;3.47;;;1.13;;
56136;SDS011;42008;52.934;5.884;2024-03-02T07:36:14;2.77;;;1.30;;
56136;SDS011;42008;52.934;5.884;2024-03-02T07:38:41;4.83;;;1.40;;
56136;SDS011;42008;52.934;5.884;2024-03-02T07:41:07;5.17;;;1.40;;
56136;SDS011;42008;52.934;5.884;2024-03-02T07:43:33;6.90;;;2.20;;
56136;SDS011;42008;52.934;5.884;2024-03-02T07:45:59;5.00;;;1.70;;
56136;SDS011;42008;52.934;5.884;2024-03-02T07:48:25;8.57;;;2.30;;
56136;SDS011;42008;52.934;5.884;2024-03-02T07:50:52;6.93;;;2.60;;
56136;SDS011;42008;52.934;5.884;2024-03-02T07:53:18;5.83;;;2.20;;
56136;SDS011;42008;52.934;5.884;2024-03-02T07:55:44;7.87;;;2.60;;
56136;SDS011;42008;52.934;5.884;2024-03-02T07:58:10;8.77;;;3.00;;
56136;SDS011;42008;52.934;5.884;2024-03-02T08:00:38;5.40;;;2.30;;
56136;SDS011;42008;52.934;5.884;2024-03-02T08:03:04;7.73;;;2.50;;
56136;SDS011;42008;52.934;5.884;2024-03-02T08:05:30;8.83;;;2.00;;
56136;SDS011;42008;52.934;5.884;2024-03-02T08:07:56;4.13;;;1.67;;
56136;SDS011;42008;52.934;5.884;2024-03-02T08:10:22;4.67;;;1.40;;
56136;SDS011;42008;52.934;5.884;2024-03-02T08:12:48;6.30;;;2.00;;
56136;SDS011;42008;52.934;5.884;2024-03-02T08:15:14;11.17;;;4.27;;
56136;SDS011;42008;52.934;5.884;2024-03-02T08:17:40;10.53;;;4.27;;
56136;SDS011;42008;52.934;5.884;2024-03-02T08:20:14;11.23;;;4.20;;
56136;SDS011;42008;52.934;5.884;2024-03-02T08:22:40;6.97;;;3.23;;
56136;SDS011;42008;52.934;5.884;2024-03-02T08:25:06;7.50;;;2.80;;
56136;SDS011;42008;52.934;5.884;2024-03-02T08:27:33;7.97;;;2.80;;
56136;SDS011;42008;52.934;5.884;2024-03-02T08:29:59;5.73;;;2.03;;
56136;SDS011;42008;52.934;5.884;2024-03-02T08:32:25;7.00;;;1.80;;
56136;SDS011;42008;52.934;5.884;2024-03-02T08:34:51;6.40;;;1.80;;
56136;SDS011;42008;52.934;5.884;2024-03-02T08:37:17;5.77;;;1.80;;
56136;SDS011;42008;52.934;5.884;2024-03-02T08:39:45;6.10;;;1.17;;
56136;SDS011;42008;52.934;5.884;2024-03-02T08:42:11;4.37;;;1.07;;
56136;SDS011;42008;52.934;5.884;2024-03-02T08:44:37;3.50;;;1.30;;
56136;SDS011;42008;52.934;5.884;2024-03-02T08:47:03;3.37;;;1.00;;
56136;SDS011;42008;52.934;5.884;2024-03-02T08:49:29;4.53;;;1.40;;
56136;SDS011;42008;52.934;5.884;2024-03-02T08:51:55;2.97;;;1.07;;
56136;SDS011;42008;52.934;5.884;2024-03-02T08:54:21;3.70;;;1.10;;
56136;SDS011;42008;52.934;5.884;2024-03-02T08:56:48;2.83;;;0.93;;
56136;SDS011;42008;52.934;5.884;2024-03-02T08:59:14;4.57;;;1.10;;
56136;SDS011;42008;52.934;5.884;2024-03-02T09:01:40;3.67;;;0.90;;
56136;SDS011;42008;52.934;5.884;2024-03-02T09:04:07;5.63;;;1.23;;
56136;SDS011;42008;52.934;5.884;2024-03-02T09:06:36;3.27;;;1.13;;
56136;SDS011;42008;52.934;5.884;2024-03-02T09:09:02;4.97;;;1.10;;
56136;SDS011;42008;52.934;5.884;2024-03-02T09:11:29;3.93;;;1.00;;
56136;SDS011;42008;52.934;5.884;2024-03-02T09:13:55;6.13;;;1.17;;
56136;SDS011;42008;52.934;5.884;2024-03-02T09:16:22;3.67;;;1.10;;
56136;SDS011;42008;52.934;5.884;2024-03-02T09:18:49;3.23;;;1.00;;
56136;SDS011;42008;52.934;5.884;2024-03-02T09:21:15;3.70;;;0.90;;
56136;SDS011;42008;52.934;5.884;2024-03-02T09:23:41;4.77;;;1.53;;
56136;SDS011;42008;52.934;5.884;2024-03-02T09:26:09;4.00;;;1.17;;
56136;SDS011;42008;52.934;5.884;2024-03-02T09:28:35;3.37;;;0.90;;
56136;SDS011;42008;52.934;5.884;2024-03-02T09:31:01;4.57;;;1.23;;
56136;SDS011;42008;52.934;5.884;2024-03-02T09:33:27;4.97;;;1.23;;
56136;SDS011;42008;52.934;5.884;2024-03-02T09:35:53;4.33;;;1.10;;
56136;SDS011;42008;52.934;5.884;2024-03-02T09:38:19;5.40;;;1.20;;
56136;SDS011;42008;52.934;5.884;2024-03-02T09:40:45;3.03;;;0.90;;
56136;SDS011;42008;52.934;5.884;2024-03-02T09:43:11;4.70;;;1.03;;
56136;SDS011;42008;52.934;5.884;2024-03-02T09:45:38;3.57;;;1.20;;
56136;SDS011;42008;52.934;5.884;2024-03-02T09:48:05;5.23;;;1.23;;
56136;SDS011;42008;52.934;5.884;2024-03-02T09:50:31;6.10;;;1.30;;
56136;SDS011;42008;52.934;5.884;2024-03-02T09:52:57;5.90;;;1.10;;
56136;SDS011;42008;52.934;5.884;2024-03-02T09:55:24;4.53;;;1.03;;
56136;SDS011;42008;52.934;5.884;2024-03-02T09:57:50;5.77;;;1.40;;
56136;SDS011;42008;52.934;5.884;2024-03-02T10:00:17;4.37;;;1.30;;
56136;SDS011;42008;52.934;5.884;2024-03-02T10:02:43;5.00;;;1.27;;
56136;SDS011;42008;52.934;5.884;2024-03-02T10:05:09;4.87;;;1.50;;
56136;SDS011;42008;52.934;5.884;2024-03-02T10:07:36;3.87;;;1.30;;
56136;SDS011;42008;52.934;5.884;2024-03-02T10:10:12;6.70;;;1.30;;
56136;SDS011;42008;52.934;5.884;2024-03-02T10:12:39;6.30;;;1.50;;
56136;SDS011;42008;52.934;5.884;2024-03-02T10:15:05;6.50;;;2.80;;
56136;SDS011;42008;52.934;5.884;2024-03-02T10:17:31;5.53;;;1.83;;
56136;SDS011;42008;52.934;5.884;2024-03-02T10:19:57;7.63;;;2.57;;
56136;SDS011;42008;52.934;5.884;2024-03-02T10:22:23;6.03;;;1.30;;
56136;SDS011;42008;52.934;5.884;2024-03-02T10:24:51;6.27;;;1.87;;
56136;SDS011;42008;52.934;5.884;2024-03-02T10:27:22;5.37;;;2.07;;
56136;SDS011;42008;52.934;5.884;2024-03-02T10:29:48;6.60;;;2.07;;
56136;SDS011;42008;52.934;5.884;2024-03-02T10:32:15;7.87;;;2.37;;
56136;SDS011;42008;52.934;5.884;2024-03-02T10:34:45;4.30;;;1.60;;
56136;SDS011;42008;52.934;5.884;2024-03-02T10:37:12;5.13;;;0.90;;
56136;SDS011;42008;52.934;5.884;2024-03-02T10:39:39;8.40;;;1.50;;
56136;SDS011;42008;52.934;5.884;2024-03-02T10:42:08;3.63;;;1.17;;
56136;SDS011;42008;52.934;5.884;2024-03-02T10:44:34;5.43;;;1.57;;
56136;SDS011;42008;52.934;5.884;2024-03-02T10:47:01;4.73;;;1.20;;
56136;SDS011;42008;52.934;5.884;2024-03-02T10:49:29;6.00;;;1.60;;
56136;SDS011;42008;52.934;5.884;2024-03-02T10:51:55;4.27;;;1.73;;
56136;SDS011;42008;52.934;5.884;2024-03-02T10:54:21;5.50;;;1.40;;
56136;SDS011;42008;52.934;5.884;2024-03-02T10:56:51;4.57;;;1.47;;
56136;SDS011;42008;52.934;5.884;2024-03-02T10:59:28;3.57;;;1.10;;
56136;SDS011;42008;52.934;5.884;2024-03-02T11:01:58;6.43;;;1.83;;
56136;SDS011;42008;52.934;5.884;2024-03-02T11:04:25;5.90;;;1.63;;
56136;SDS011;42008;52.934;5.884;2024-03-02T11:06:52;5.90;;;1.53;;
56136;SDS011;42008;52.934;5.884;2024-03-02T11:09:19;5.60;;;2.00;;
56136;SDS011;42008;52.934;5.884;2024-03-02T11:11:46;5.30;;;1.30;;
56136;SDS011;42008;52.934;5.884;2024-03-02T11:14:16;5.73;;;1.87;;
56136;SDS011;42008;52.934;5.884;2024-03-02T11:16:42;7.03;;;1.40;;
56136;SDS011;42008;52.934;5.884;2024-03-02T11:19:12;3.53;;;1.33;;
56136;SDS011;42008;52.934;5.884;2024-03-02T11:21:39;6.63;;;1.50;;
56136;SDS011;42008;52.934;5.884;2024-03-02T11:26:50;7.00;;;2.00;;
56136;SDS011;42008;52.934;5.884;2024-03-02T11:32:01;7.70;;;1.80;;
56136;SDS011;42008;52.934;5.884;2024-03-02T11:34:31;7.10;;;2.30;;
56136;SDS011;42008;52.934;5.884;2024-03-02T11:36:57;4.57;;;1.20;;
56136;SDS011;42008;52.934;5.884;2024-03-02T11:39:27;6.33;;;1.60;;
56136;SDS011;42008;52.934;5.884;2024-03-02T11:41:53;4.73;;;1.67;;
56136;SDS011;42008;52.934;5.884;2024-03-02T11:44:19;7.63;;;1.50;;
56136;SDS011;42008;52.934;5.884;2024-03-02T11:46:46;2.83;;;0.90;;
56136;SDS011;42008;52.934;5.884;2024-03-02T11:49:15;8.03;;;1.70;;
56136;SDS011;42008;52.934;5.884;2024-03-02T11:52:00;4.10;;;1.00;;
56136;SDS011;42008;52.934;5.884;2024-03-02T11:54:27;8.10;;;2.07;;
56136;SDS011;42008;52.934;5.884;2024-03-02T11:56:56;5.60;;;1.80;;
56136;SDS011;42008;52.934;5.884;2024-03-02T11:59:22;6.30;;;1.63;;
56136;SDS011;42008;52.934;5.884;2024-03-02T12:01:49;5.63;;;1.80;;
56136;SDS011;42008;52.934;5.884;2024-03-02T12:04:15;4.67;;;1.30;;
56136;SDS011;42008;52.934;5.884;2024-03-02T12:06:41;5.30;;;1.40;;
56136;SDS011;42008;52.934;5.884;2024-03-02T12:09:09;4.83;;;1.27;;
56136;SDS011;42008;52.934;5.884;2024-03-02T12:11:39;4.68;;;1.20;;
56136;SDS011;42008;52.934;5.884;2024-03-02T12:14:10;3.10;;;1.20;;
56136;SDS011;42008;52.934;5.884;2024-03-02T12:16:37;5.20;;;1.10;;
56136;SDS011;42008;52.934;5.884;2024-03-02T12:19:05;6.40;;;1.50;;
56136;SDS011;42008;52.934;5.884;2024-03-02T12:21:31;10.63;;;2.40;;
56136;SDS011;42008;52.934;5.884;2024-03-02T12:23:57;5.37;;;1.20;;
56136;SDS011;42008;52.934;5.884;2024-03-02T12:26:23;6.03;;;1.60;;
56136;SDS011;42008;52.934;5.884;2024-03-02T12:28:49;4.90;;;1.87;;
56136;SDS011;42008;52.934;5.884;2024-03-02T12:31:16;6.77;;;2.10;;
56136;SDS011;42008;52.934;5.884;2024-03-02T12:33:42;7.93;;;1.70;;
56136;SDS011;42008;52.934;5.884;2024-03-02T12:36:13;7.17;;;1.97;;
56136;SDS011;42008;52.934;5.884;2024-03-02T12:38:45;7.10;;;1.80;;
56136;SDS011;42008;52.934;5.884;2024-03-02T12:41:14;7.23;;;2.37;;
56136;SDS011;42008;52.934;5.884;2024-03-02T12:43:40;5.00;;;1.87;;
56136;SDS011;42008;52.934;5.884;2024-03-02T12:46:06;6.30;;;1.57;;
56136;SDS011;42008;52.934;5.884;2024-03-02T12:48:33;5.50;;;2.00;;
56136;SDS011;42008;52.934;5.884;2024-03-02T12:51:00;7.33;;;1.83;;
56136;SDS011;42008;52.934;5.884;2024-03-02T12:53:26;6.00;;;1.67;;
56136;SDS011;42008;52.934;5.884;2024-03-02T12:55:52;4.57;;;1.83;;
56136;SDS011;42008;52.934;5.884;2024-03-02T12:58:21;6.70;;;1.50;;
56136;SDS011;42008;52.934;5.884;2024-03-02T13:00:47;5.20;;;1.60;;
56136;SDS011;42008;52.934;5.884;2024-03-02T13:03:13;5.03;;;1.47;;
56136;SDS011;42008;52.934;5.884;2024-03-02T13:05:40;4.87;;;1.50;;
56136;SDS011;42008;52.934;5.884;2024-03-02T13:08:06;5.17;;;1.70;;
56136;SDS011;42008;52.934;5.884;2024-03-02T13:10:32;5.87;;;1.43;;
56136;SDS011;42008;52.934;5.884;2024-03-02T13:12:59;4.80;;;1.67;;
56136;SDS011;42008;52.934;5.884;2024-03-02T13:15:26;4.60;;;1.50;;
56136;SDS011;42008;52.934;5.884;2024-03-02T13:17:52;4.90;;;1.60;;
56136;SDS011;42008;52.934;5.884;2024-03-02T13:20:18;5.23;;;1.50;;
56136;SDS011;42008;52.934;5.884;2024-03-02T13:22:45;4.27;;;1.50;;
56136;SDS011;42008;52.934;5.884;2024-03-02T13:25:11;4.83;;;1.40;;
56136;SDS011;42008;52.934;5.884;2024-03-02T13:27:37;4.30;;;1.67;;
56136;SDS011;42008;52.934;5.884;2024-03-02T13:30:03;4.30;;;1.40;;
56136;SDS011;42008;52.934;5.884;2024-03-02T13:32:33;6.37;;;1.33;;
56136;SDS011;42008;52.934;5.884;2024-03-02T13:34:59;4.50;;;1.40;;
56136;SDS011;42008;52.934;5.884;2024-03-02T13:37:25;5.10;;;1.40;;
56136;SDS011;42008;52.934;5.884;2024-03-02T13:39:52;4.50;;;1.50;;
56136;SDS011;42008;52.934;5.884;2024-03-02T13:42:18;5.13;;;1.50;;
56136;SDS011;42008;52.934;5.884;2024-03-02T13:44:44;4.67;;;1.30;;
56136;SDS011;42008;52.934;5.884;2024-03-02T13:47:15;4.28;;;1.02;;
56136;SDS011;42008;52.934;5.884;2024-03-02T13:49:41;3.93;;;1.10;;
56136;SDS011;42008;52.934;5.884;2024-03-02T13:52:11;3.77;;;1.20;;
56136;SDS011;42008;52.934;5.884;2024-03-02T13:54:42;4.77;;;1.33;;
56136;SDS011;42008;52.934;5.884;2024-03-02T13:57:09;3.87;;;1.30;;
56136;SDS011;42008;52.934;5.884;2024-03-02T13:59:35;3.50;;;1.10;;
56136;SDS011;42008;52.934;5.884;2024-03-02T14:02:01;4.30;;;1.17;;
56136;SDS011;42008;52.934;5.884;2024-03-02T14:04:30;2.90;;;1.17;;
56136;SDS011;42008;52.934;5.884;2024-03-02T14:06:56;4.27;;;1.50;;
56136;SDS011;42008;52.934;5.884;2024-03-02T14:09:22;4.27;;;1.20;;
56136;SDS011;42008;52.934;5.884;2024-03-02T14:11:52;6.15;;;1.40;;
56136;SDS011;42008;52.934;5.884;2024-03-02T14:14:18;4.90;;;1.30;;
56136;SDS011;42008;52.934;5.884;2024-03-02T14:16:44;5.65;;;1.17;;
56136;SDS011;42008;52.934;5.884;2024-03-02T14:19:11;6.13;;;1.77;;
56136;SDS011;42008;52.934;5.884;2024-03-02T14:21:37;3.38;;;1.00;;
56136;SDS011;42008;52.934;5.884;2024-03-02T14:24:03;2.90;;;1.00;;
56136;SDS011;42008;52.934;5.884;2024-03-02T14:26:29;5.40;;;1.30;;
56136;SDS011;42008;52.934;5.884;2024-03-02T14:28:56;3.90;;;1.08;;
56136;SDS011;42008;52.934;5.884;2024-03-02T14:31:22;4.80;;;1.20;;
56136;SDS011;42008;52.934;5.884;2024-03-02T14:33:48;6.57;;;1.45;;
56136;SDS011;42008;52.934;5.884;2024-03-02T14:36:14;5.28;;;1.48;;
56136;SDS011;42008;52.934;5.884;2024-03-02T14:38:40;3.53;;;1.13;;
56136;SDS011;42008;52.934;5.884;2024-03-02T14:41:06;5.75;;;1.27;;
56136;SDS011;42008;52.934;5.884;2024-03-02T14:43:32;3.35;;;1.10;;
56136;SDS011;42008;52.934;5.884;2024-03-02T14:45:58;2.78;;;1.10;;
56136;SDS011;42008;52.934;5.884;2024-03-02T14:48:24;3.97;;;1.40;;
56136;SDS011;42008;52.934;5.884;2024-03-02T14:50:50;4.40;;;1.25;;